ESMK/KID METAR and TAF weather

Enter ICAO airport designator
Station Type Date Time Source
ESMK METAR 2020/09/26 23:50 UTC NOAA

ESMK 262350Z AUTO /////KT 9999 SCT047/// 16/15 Q1001


Station Type Date Time Source
ESMK Decoded METAR 2020/09/26 23:50 UTC NOAA

Kristianstad / Everod, Sweden (ESMK) 55-55N 014-05E
Sep 26, 2020 - 07:50 PM EDT / 2020.09.26 2350 UTC
Visibility: greater than 7 mile(s):0
Sky conditions: partly cloudy
Temperature: 60 F (16 C)
Dew Point: 59 F (15 C)
Relative Humidity: 93%
Pressure (altimeter): 29.56 in. Hg (1001 hPa)
ob: ESMK 262350Z AUTO /////KT 9999 SCT047/// 16/15 Q1001
cycle: 0

Station Type Date Time Source
ESMK TAF 2020/07/19 09:57 UTC NOAA

TAF TAF ESMK 190930Z 1909/1921 13008KT CAVOK PROB40 1910/1919 SCT030TCU

Example: see airport list